sensor_id;sensor_type;location;lat;lon;timestamp;P1;durP1;ratioP1;P2;durP2;ratioP2
50569;SDS011;36525;49.398;7.614;2023-04-07T00:01:02;12.88;;;8.65;;
50569;SDS011;36525;49.398;7.614;2023-04-07T00:03:29;10.93;;;8.35;;
50569;SDS011;36525;49.398;7.614;2023-04-07T00:05:56;11.45;;;8.57;;
50569;SDS011;36525;49.398;7.614;2023-04-07T00:08:23;13.88;;;7.75;;
50569;SDS011;36525;49.398;7.614;2023-04-07T00:10:50;12.55;;;8.65;;
50569;SDS011;36525;49.398;7.614;2023-04-07T00:13:17;11.38;;;8.18;;
50569;SDS011;36525;49.398;7.614;2023-04-07T00:15:44;14.75;;;8.63;;
50569;SDS011;36525;49.398;7.614;2023-04-07T00:18:11;12.63;;;8.73;;
50569;SDS011;36525;49.398;7.614;2023-04-07T00:20:39;11.75;;;8.50;;
50569;SDS011;36525;49.398;7.614;2023-04-07T00:23:06;15.52;;;9.48;;
50569;SDS011;36525;49.398;7.614;2023-04-07T00:25:33;10.93;;;8.63;;
50569;SDS011;36525;49.398;7.614;2023-04-07T00:28:00;14.07;;;9.15;;
50569;SDS011;36525;49.398;7.614;2023-04-07T00:30:27;12.93;;;8.00;;
50569;SDS011;36525;49.398;7.614;2023-04-07T00:32:54;12.35;;;8.65;;
50569;SDS011;36525;49.398;7.614;2023-04-07T00:35:22;12.43;;;8.73;;
50569;SDS011;36525;49.398;7.614;2023-04-07T00:37:49;11.98;;;9.27;;
50569;SDS011;36525;49.398;7.614;2023-04-07T00:40:16;12.20;;;8.85;;
50569;SDS011;36525;49.398;7.614;2023-04-07T00:42:45;14.23;;;9.10;;
50569;SDS011;36525;49.398;7.614;2023-04-07T00:45:12;12.73;;;7.93;;
50569;SDS011;36525;49.398;7.614;2023-04-07T00:47:39;13.23;;;8.77;;
50569;SDS011;36525;49.398;7.614;2023-04-07T00:50:07;10.73;;;8.02;;
50569;SDS011;36525;49.398;7.614;2023-04-07T00:52:34;11.50;;;7.90;;
50569;SDS011;36525;49.398;7.614;2023-04-07T00:55:02;13.65;;;9.20;;
50569;SDS011;36525;49.398;7.614;2023-04-07T00:57:29;12.68;;;8.93;;
50569;SDS011;36525;49.398;7.614;2023-04-07T00:59:56;14.10;;;9.45;;
50569;SDS011;36525;49.398;7.614;2023-04-07T01:05:09;13.18;;;9.45;;
50569;SDS011;36525;49.398;7.614;2023-04-07T01:10:40;17.13;;;10.02;;
50569;SDS011;36525;49.398;7.614;2023-04-07T01:16:01;18.45;;;11.23;;
50569;SDS011;36525;49.398;7.614;2023-04-07T01:18:35;14.77;;;10.98;;
50569;SDS011;36525;49.398;7.614;2023-04-07T01:21:13;15.30;;;10.15;;
50569;SDS011;36525;49.398;7.614;2023-04-07T01:26:29;17.80;;;10.10;;
50569;SDS011;36525;49.398;7.614;2023-04-07T01:32:13;15.65;;;10.43;;
50569;SDS011;36525;49.398;7.614;2023-04-07T01:34:41;16.20;;;10.43;;
50569;SDS011;36525;49.398;7.614;2023-04-07T01:37:09;15.10;;;10.63;;
50569;SDS011;36525;49.398;7.614;2023-04-07T01:39:37;18.50;;;10.15;;
50569;SDS011;36525;49.398;7.614;2023-04-07T01:42:05;18.27;;;10.70;;
50569;SDS011;36525;49.398;7.614;2023-04-07T01:44:32;14.65;;;10.52;;
50569;SDS011;36525;49.398;7.614;2023-04-07T01:47:01;13.57;;;9.98;;
50569;SDS011;36525;49.398;7.614;2023-04-07T01:49:29;13.02;;;9.50;;
50569;SDS011;36525;49.398;7.614;2023-04-07T01:51:57;11.70;;;9.60;;
50569;SDS011;36525;49.398;7.614;2023-04-07T01:54:25;16.67;;;9.48;;
50569;SDS011;36525;49.398;7.614;2023-04-07T01:56:53;16.48;;;9.55;;
50569;SDS011;36525;49.398;7.614;2023-04-07T01:59:21;19.33;;;11.40;;
50569;SDS011;36525;49.398;7.614;2023-04-07T02:01:49;17.00;;;11.00;;
50569;SDS011;36525;49.398;7.614;2023-04-07T02:07:48;16.23;;;9.70;;
50569;SDS011;36525;49.398;7.614;2023-04-07T02:10:27;14.60;;;10.77;;
50569;SDS011;36525;49.398;7.614;2023-04-07T02:12:55;13.20;;;9.15;;
50569;SDS011;36525;49.398;7.614;2023-04-07T02:15:25;14.40;;;10.40;;
50569;SDS011;36525;49.398;7.614;2023-04-07T02:17:53;14.60;;;9.82;;
50569;SDS011;36525;49.398;7.614;2023-04-07T02:20:23;13.30;;;10.13;;
50569;SDS011;36525;49.398;7.614;2023-04-07T02:22:51;13.13;;;10.15;;
50569;SDS011;36525;49.398;7.614;2023-04-07T02:27:54;12.88;;;9.77;;
50569;SDS011;36525;49.398;7.614;2023-04-07T02:30:24;15.38;;;9.20;;
50569;SDS011;36525;49.398;7.614;2023-04-07T02:32:53;15.43;;;10.95;;
50569;SDS011;36525;49.398;7.614;2023-04-07T02:35:20;15.10;;;11.02;;
50569;SDS011;36525;49.398;7.614;2023-04-07T02:37:48;15.65;;;12.20;;
50569;SDS011;36525;49.398;7.614;2023-04-07T02:40:15;16.10;;;11.00;;
50569;SDS011;36525;49.398;7.614;2023-04-07T02:42:43;12.02;;;8.90;;
50569;SDS011;36525;49.398;7.614;2023-04-07T02:45:10;15.18;;;11.15;;
50569;SDS011;36525;49.398;7.614;2023-04-07T02:47:38;13.73;;;10.52;;
50569;SDS011;36525;49.398;7.614;2023-04-07T02:50:05;13.13;;;9.88;;
50569;SDS011;36525;49.398;7.614;2023-04-07T02:52:33;13.27;;;10.77;;
50569;SDS011;36525;49.398;7.614;2023-04-07T02:55:00;14.02;;;9.85;;
50569;SDS011;36525;49.398;7.614;2023-04-07T02:57:28;15.27;;;11.23;;
50569;SDS011;36525;49.398;7.614;2023-04-07T02:59:55;16.17;;;10.32;;
50569;SDS011;36525;49.398;7.614;2023-04-07T03:02:23;12.95;;;9.80;;
50569;SDS011;36525;49.398;7.614;2023-04-07T03:04:51;12.93;;;9.73;;
50569;SDS011;36525;49.398;7.614;2023-04-07T03:07:18;11.40;;;8.98;;
50569;SDS011;36525;49.398;7.614;2023-04-07T03:09:46;16.92;;;11.30;;
50569;SDS011;36525;49.398;7.614;2023-04-07T03:12:13;14.00;;;11.02;;
50569;SDS011;36525;49.398;7.614;2023-04-07T03:14:40;13.15;;;10.50;;
50569;SDS011;36525;49.398;7.614;2023-04-07T03:17:07;12.55;;;9.77;;
50569;SDS011;36525;49.398;7.614;2023-04-07T03:19:34;16.48;;;10.65;;
50569;SDS011;36525;49.398;7.614;2023-04-07T03:22:01;12.30;;;9.40;;
50569;SDS011;36525;49.398;7.614;2023-04-07T03:24:28;14.48;;;10.32;;
50569;SDS011;36525;49.398;7.614;2023-04-07T03:26:56;13.23;;;9.77;;
50569;SDS011;36525;49.398;7.614;2023-04-07T03:29:24;11.30;;;9.13;;
50569;SDS011;36525;49.398;7.614;2023-04-07T03:31:54;13.32;;;10.32;;
50569;SDS011;36525;49.398;7.614;2023-04-07T03:34:22;14.18;;;9.90;;
50569;SDS011;36525;49.398;7.614;2023-04-07T03:36:49;14.88;;;11.13;;
50569;SDS011;36525;49.398;7.614;2023-04-07T03:39:16;17.25;;;10.85;;
50569;SDS011;36525;49.398;7.614;2023-04-07T03:41:43;12.80;;;10.57;;
50569;SDS011;36525;49.398;7.614;2023-04-07T03:44:10;15.10;;;10.82;;
50569;SDS011;36525;49.398;7.614;2023-04-07T03:46:37;12.75;;;9.80;;
50569;SDS011;36525;49.398;7.614;2023-04-07T03:49:04;16.33;;;11.82;;
50569;SDS011;36525;49.398;7.614;2023-04-07T03:51:32;18.80;;;13.13;;
50569;SDS011;36525;49.398;7.614;2023-04-07T03:53:59;19.73;;;13.25;;
50569;SDS011;36525;49.398;7.614;2023-04-07T03:56:26;14.25;;;10.55;;
50569;SDS011;36525;49.398;7.614;2023-04-07T03:58:54;16.10;;;12.60;;
50569;SDS011;36525;49.398;7.614;2023-04-07T04:01:21;14.30;;;12.40;;
50569;SDS011;36525;49.398;7.614;2023-04-07T04:03:48;14.30;;;10.77;;
50569;SDS011;36525;49.398;7.614;2023-04-07T04:06:17;17.88;;;12.73;;
50569;SDS011;36525;49.398;7.614;2023-04-07T04:08:44;17.25;;;11.88;;
50569;SDS011;36525;49.398;7.614;2023-04-07T04:11:12;14.00;;;11.00;;
50569;SDS011;36525;49.398;7.614;2023-04-07T04:13:39;16.42;;;11.45;;
50569;SDS011;36525;49.398;7.614;2023-04-07T04:16:06;21.88;;;14.57;;
50569;SDS011;36525;49.398;7.614;2023-04-07T04:18:38;17.58;;;12.15;;
50569;SDS011;36525;49.398;7.614;2023-04-07T04:21:05;17.27;;;11.25;;
50569;SDS011;36525;49.398;7.614;2023-04-07T04:23:34;15.45;;;11.57;;
50569;SDS011;36525;49.398;7.614;2023-04-07T04:26:01;15.32;;;11.73;;
50569;SDS011;36525;49.398;7.614;2023-04-07T04:28:29;17.02;;;11.00;;
50569;SDS011;36525;49.398;7.614;2023-04-07T04:30:56;14.73;;;11.40;;
50569;SDS011;36525;49.398;7.614;2023-04-07T04:33:23;20.92;;;14.27;;
50569;SDS011;36525;49.398;7.614;2023-04-07T04:35:51;29.08;;;24.45;;
50569;SDS011;36525;49.398;7.614;2023-04-07T04:38:18;24.90;;;19.88;;
50569;SDS011;36525;49.398;7.614;2023-04-07T04:40:45;23.70;;;18.35;;
50569;SDS011;36525;49.398;7.614;2023-04-07T04:43:12;17.65;;;13.48;;
50569;SDS011;36525;49.398;7.614;2023-04-07T04:45:39;18.45;;;11.45;;
50569;SDS011;36525;49.398;7.614;2023-04-07T04:48:06;21.38;;;14.32;;
50569;SDS011;36525;49.398;7.614;2023-04-07T04:50:33;15.68;;;12.43;;
50569;SDS011;36525;49.398;7.614;2023-04-07T04:53:01;17.23;;;13.25;;
50569;SDS011;36525;49.398;7.614;2023-04-07T04:55:28;23.55;;;16.00;;
50569;SDS011;36525;49.398;7.614;2023-04-07T04:57:55;20.10;;;14.05;;
50569;SDS011;36525;49.398;7.614;2023-04-07T05:00:23;18.85;;;13.63;;
50569;SDS011;36525;49.398;7.614;2023-04-07T05:02:50;17.65;;;12.20;;
50569;SDS011;36525;49.398;7.614;2023-04-07T05:05:18;16.83;;;13.02;;
50569;SDS011;36525;49.398;7.614;2023-04-07T05:07:45;21.33;;;15.13;;
50569;SDS011;36525;49.398;7.614;2023-04-07T05:10:12;20.83;;;15.65;;
50569;SDS011;36525;49.398;7.614;2023-04-07T05:12:39;19.65;;;14.48;;
50569;SDS011;36525;49.398;7.614;2023-04-07T05:15:06;21.23;;;14.93;;
50569;SDS011;36525;49.398;7.614;2023-04-07T05:17:34;22.80;;;16.00;;
50569;SDS011;36525;49.398;7.614;2023-04-07T05:20:03;24.70;;;15.15;;
50569;SDS011;36525;49.398;7.614;2023-04-07T05:22:31;19.70;;;14.15;;
50569;SDS011;36525;49.398;7.614;2023-04-07T05:24:58;16.73;;;13.43;;
50569;SDS011;36525;49.398;7.614;2023-04-07T05:27:25;16.05;;;13.25;;
50569;SDS011;36525;49.398;7.614;2023-04-07T05:29:53;14.90;;;10.43;;
50569;SDS011;36525;49.398;7.614;2023-04-07T05:32:20;21.67;;;13.98;;
50569;SDS011;36525;49.398;7.614;2023-04-07T05:34:47;18.02;;;13.60;;
50569;SDS011;36525;49.398;7.614;2023-04-07T05:37:14;18.55;;;12.85;;
50569;SDS011;36525;49.398;7.614;2023-04-07T05:39:41;16.08;;;11.18;;
50569;SDS011;36525;49.398;7.614;2023-04-07T05:42:08;14.05;;;10.65;;
50569;SDS011;36525;49.398;7.614;2023-04-07T05:44:35;15.52;;;10.57;;
50569;SDS011;36525;49.398;7.614;2023-04-07T05:47:02;13.23;;;8.90;;
50569;SDS011;36525;49.398;7.614;2023-04-07T05:49:34;17.33;;;10.70;;
50569;SDS011;36525;49.398;7.614;2023-04-07T05:52:01;14.25;;;9.65;;
50569;SDS011;36525;49.398;7.614;2023-04-07T05:54:29;18.55;;;9.95;;
50569;SDS011;36525;49.398;7.614;2023-04-07T05:56:56;14.95;;;9.60;;
50569;SDS011;36525;49.398;7.614;2023-04-07T05:59:23;14.07;;;9.80;;
50569;SDS011;36525;49.398;7.614;2023-04-07T06:01:50;16.85;;;10.43;;
50569;SDS011;36525;49.398;7.614;2023-04-07T06:04:17;16.33;;;11.10;;
50569;SDS011;36525;49.398;7.614;2023-04-07T06:06:44;23.73;;;11.13;;
50569;SDS011;36525;49.398;7.614;2023-04-07T06:09:11;15.25;;;11.77;;
50569;SDS011;36525;49.398;7.614;2023-04-07T06:11:38;18.08;;;12.63;;
50569;SDS011;36525;49.398;7.614;2023-04-07T06:14:05;17.30;;;11.18;;
50569;SDS011;36525;49.398;7.614;2023-04-07T06:16:32;17.95;;;12.23;;
50569;SDS011;36525;49.398;7.614;2023-04-07T06:18:59;25.88;;;14.10;;
50569;SDS011;36525;49.398;7.614;2023-04-07T06:21:26;19.27;;;12.55;;
50569;SDS011;36525;49.398;7.614;2023-04-07T06:23:53;19.88;;;12.70;;
50569;SDS011;36525;49.398;7.614;2023-04-07T06:26:21;18.63;;;12.55;;
50569;SDS011;36525;49.398;7.614;2023-04-07T06:28:49;19.35;;;13.55;;
50569;SDS011;36525;49.398;7.614;2023-04-07T06:31:16;18.38;;;12.05;;
50569;SDS011;36525;49.398;7.614;2023-04-07T06:33:44;20.48;;;12.30;;
50569;SDS011;36525;49.398;7.614;2023-04-07T06:36:12;22.50;;;12.77;;
50569;SDS011;36525;49.398;7.614;2023-04-07T06:38:39;19.85;;;13.20;;
50569;SDS011;36525;49.398;7.614;2023-04-07T06:41:06;23.67;;;14.27;;
50569;SDS011;36525;49.398;7.614;2023-04-07T06:43:36;20.30;;;13.27;;
50569;SDS011;36525;49.398;7.614;2023-04-07T06:46:04;21.25;;;12.98;;
50569;SDS011;36525;49.398;7.614;2023-04-07T06:48:31;18.92;;;12.68;;
50569;SDS011;36525;49.398;7.614;2023-04-07T06:50:58;18.80;;;13.10;;
50569;SDS011;36525;49.398;7.614;2023-04-07T06:53:25;21.30;;;14.18;;
50569;SDS011;36525;49.398;7.614;2023-04-07T06:56:01;24.20;;;14.75;;
50569;SDS011;36525;49.398;7.614;2023-04-07T06:58:36;22.48;;;15.27;;
50569;SDS011;36525;49.398;7.614;2023-04-07T07:01:04;17.42;;;12.35;;
50569;SDS011;36525;49.398;7.614;2023-04-07T07:03:31;22.30;;;15.32;;
50569;SDS011;36525;49.398;7.614;2023-04-07T07:05:59;24.85;;;16.58;;
50569;SDS011;36525;49.398;7.614;2023-04-07T07:08:27;20.80;;;14.98;;
50569;SDS011;36525;49.398;7.614;2023-04-07T07:10:56;23.75;;;15.68;;
50569;SDS011;36525;49.398;7.614;2023-04-07T07:13:23;21.95;;;14.77;;
50569;SDS011;36525;49.398;7.614;2023-04-07T07:15:52;20.35;;;14.52;;
50569;SDS011;36525;49.398;7.614;2023-04-07T07:18:19;24.55;;;15.85;;
50569;SDS011;36525;49.398;7.614;2023-04-07T07:20:46;26.10;;;17.88;;
50569;SDS011;36525;49.398;7.614;2023-04-07T07:23:13;21.13;;;15.45;;
50569;SDS011;36525;49.398;7.614;2023-04-07T07:25:40;27.02;;;17.75;;
50569;SDS011;36525;49.398;7.614;2023-04-07T07:28:07;30.23;;;17.50;;
50569;SDS011;36525;49.398;7.614;2023-04-07T07:30:34;24.63;;;17.20;;
50569;SDS011;36525;49.398;7.614;2023-04-07T07:33:04;26.88;;;16.63;;
50569;SDS011;36525;49.398;7.614;2023-04-07T07:35:32;20.10;;;14.57;;
50569;SDS011;36525;49.398;7.614;2023-04-07T07:37:59;24.40;;;15.45;;
50569;SDS011;36525;49.398;7.614;2023-04-07T07:40:26;23.85;;;15.95;;
50569;SDS011;36525;49.398;7.614;2023-04-07T07:42:53;19.52;;;12.68;;
50569;SDS011;36525;49.398;7.614;2023-04-07T07:45:20;22.92;;;13.93;;
50569;SDS011;36525;49.398;7.614;2023-04-07T07:47:47;24.75;;;14.90;;
50569;SDS011;36525;49.398;7.614;2023-04-07T07:50:15;21.67;;;13.98;;
50569;SDS011;36525;49.398;7.614;2023-04-07T07:52:42;25.45;;;17.45;;
50569;SDS011;36525;49.398;7.614;2023-04-07T07:55:09;24.75;;;14.35;;
50569;SDS011;36525;49.398;7.614;2023-04-07T07:57:36;25.63;;;16.73;;
50569;SDS011;36525;49.398;7.614;2023-04-07T08:00:04;24.15;;;15.45;;
50569;SDS011;36525;49.398;7.614;2023-04-07T08:02:32;24.25;;;14.82;;
50569;SDS011;36525;49.398;7.614;2023-04-07T08:04:59;25.30;;;15.63;;
50569;SDS011;36525;49.398;7.614;2023-04-07T08:07:26;27.60;;;15.95;;
50569;SDS011;36525;49.398;7.614;2023-04-07T08:09:53;28.30;;;16.48;;
50569;SDS011;36525;49.398;7.614;2023-04-07T08:12:21;25.10;;;15.48;;
50569;SDS011;36525;49.398;7.614;2023-04-07T08:14:48;21.52;;;14.57;;
50569;SDS011;36525;49.398;7.614;2023-04-07T08:17:15;23.35;;;16.48;;
50569;SDS011;36525;49.398;7.614;2023-04-07T08:19:42;23.98;;;15.38;;
50569;SDS011;36525;49.398;7.614;2023-04-07T08:22:10;22.33;;;14.68;;
50569;SDS011;36525;49.398;7.614;2023-04-07T08:24:37;24.60;;;14.38;;
50569;SDS011;36525;49.398;7.614;2023-04-07T08:27:03;19.73;;;14.50;;
50569;SDS011;36525;49.398;7.614;2023-04-07T08:29:31;23.35;;;16.25;;
50569;SDS011;36525;49.398;7.614;2023-04-07T08:31:58;23.85;;;15.43;;
50569;SDS011;36525;49.398;7.614;2023-04-07T08:34:25;26.08;;;16.88;;
50569;SDS011;36525;49.398;7.614;2023-04-07T08:36:52;18.92;;;15.52;;
50569;SDS011;36525;49.398;7.614;2023-04-07T08:39:19;22.67;;;16.13;;
50569;SDS011;36525;49.398;7.614;2023-04-07T08:41:48;23.90;;;17.63;;
50569;SDS011;36525;49.398;7.614;2023-04-07T08:44:16;23.60;;;15.30;;
50569;SDS011;36525;49.398;7.614;2023-04-07T08:46:47;23.27;;;16.05;;
50569;SDS011;36525;49.398;7.614;2023-04-07T08:49:16;26.20;;;18.92;;
50569;SDS011;36525;49.398;7.614;2023-04-07T08:51:47;24.83;;;17.00;;
50569;SDS011;36525;49.398;7.614;2023-04-07T08:54:16;25.85;;;15.77;;
50569;SDS011;36525;49.398;7.614;2023-04-07T08:56:44;20.75;;;14.38;;
50569;SDS011;36525;49.398;7.614;2023-04-07T08:59:12;20.98;;;13.73;;
50569;SDS011;36525;49.398;7.614;2023-04-07T09:01:41;19.90;;;14.82;;
50569;SDS011;36525;49.398;7.614;2023-04-07T09:04:08;20.38;;;14.95;;
50569;SDS011;36525;49.398;7.614;2023-04-07T09:06:36;22.33;;;13.68;;
50569;SDS011;36525;49.398;7.614;2023-04-07T09:09:04;20.52;;;14.60;;
50569;SDS011;36525;49.398;7.614;2023-04-07T09:11:33;22.77;;;15.40;;
50569;SDS011;36525;49.398;7.614;2023-04-07T09:14:05;28.27;;;18.50;;
50569;SDS011;36525;49.398;7.614;2023-04-07T09:16:33;25.80;;;15.00;;
50569;SDS011;36525;49.398;7.614;2023-04-07T09:19:01;19.73;;;14.05;;
50569;SDS011;36525;49.398;7.614;2023-04-07T09:21:47;23.73;;;17.77;;
50569;SDS011;36525;49.398;7.614;2023-04-07T09:24:22;19.02;;;15.15;;
50569;SDS011;36525;49.398;7.614;2023-04-07T09:27:25;21.23;;;15.50;;
50569;SDS011;36525;49.398;7.614;2023-04-07T09:32:34;23.83;;;15.90;;
50569;SDS011;36525;49.398;7.614;2023-04-07T09:35:04;26.25;;;16.52;;
50569;SDS011;36525;49.398;7.614;2023-04-07T09:37:32;26.45;;;17.75;;
50569;SDS011;36525;49.398;7.614;2023-04-07T09:39:59;23.55;;;15.50;;
50569;SDS011;36525;49.398;7.614;2023-04-07T09:42:27;18.45;;;13.82;;
50569;SDS011;36525;49.398;7.614;2023-04-07T09:44:58;19.63;;;15.27;;
50569;SDS011;36525;49.398;7.614;2023-04-07T09:47:30;23.20;;;16.75;;
50569;SDS011;36525;49.398;7.614;2023-04-07T09:49:58;19.23;;;11.63;;
50569;SDS011;36525;49.398;7.614;2023-04-07T09:52:48;20.73;;;14.80;;
50569;SDS011;36525;49.398;7.614;2023-04-07T09:55:19;22.50;;;16.25;;
50569;SDS011;36525;49.398;7.614;2023-04-07T09:57:48;18.50;;;11.27;;
50569;SDS011;36525;49.398;7.614;2023-04-07T10:00:16;14.85;;;8.30;;
50569;SDS011;36525;49.398;7.614;2023-04-07T10:02:44;9.07;;;6.18;;
50569;SDS011;36525;49.398;7.614;2023-04-07T10:05:12;10.32;;;5.72;;
50569;SDS011;36525;49.398;7.614;2023-04-07T10:07:39;7.57;;;4.38;;
50569;SDS011;36525;49.398;7.614;2023-04-07T10:10:08;7.55;;;4.13;;
50569;SDS011;36525;49.398;7.614;2023-04-07T10:12:36;6.00;;;3.63;;
50569;SDS011;36525;49.398;7.614;2023-04-07T10:15:03;6.55;;;3.47;;
50569;SDS011;36525;49.398;7.614;2023-04-07T10:17:32;4.95;;;2.15;;
50569;SDS011;36525;49.398;7.614;2023-04-07T10:20:01;5.63;;;2.85;;
50569;SDS011;36525;49.398;7.614;2023-04-07T10:22:32;5.25;;;3.15;;
50569;SDS011;36525;49.398;7.614;2023-04-07T10:25:05;6.25;;;3.45;;
50569;SDS011;36525;49.398;7.614;2023-04-07T10:27:47;5.88;;;2.90;;
50569;SDS011;36525;49.398;7.614;2023-04-07T10:30:23;5.43;;;2.95;;
50569;SDS011;36525;49.398;7.614;2023-04-07T10:32:55;5.63;;;3.33;;
50569;SDS011;36525;49.398;7.614;2023-04-07T10:35:23;7.28;;;3.58;;
50569;SDS011;36525;49.398;7.614;2023-04-07T10:40:33;6.85;;;3.95;;
50569;SDS011;36525;49.398;7.614;2023-04-07T10:43:02;5.88;;;3.13;;
50569;SDS011;36525;49.398;7.614;2023-04-07T10:48:14;7.07;;;3.67;;
50569;SDS011;36525;49.398;7.614;2023-04-07T10:50:44;5.25;;;3.28;;
50569;SDS011;36525;49.398;7.614;2023-04-07T10:53:14;7.30;;;3.35;;
50569;SDS011;36525;49.398;7.614;2023-04-07T10:55:43;4.35;;;3.00;;
50569;SDS011;36525;49.398;7.614;2023-04-07T10:58:32;6.78;;;3.28;;
50569;SDS011;36525;49.398;7.614;2023-04-07T11:06:02;5.28;;;3.78;;
50569;SDS011;36525;49.398;7.614;2023-04-07T11:11:02;6.25;;;3.67;;
50569;SDS011;36525;49.398;7.614;2023-04-07T11:13:39;4.95;;;3.03;;
50569;SDS011;36525;49.398;7.614;2023-04-07T11:16:14;4.93;;;3.35;;
50569;SDS011;36525;49.398;7.614;2023-04-07T11:18:43;6.03;;;3.47;;
50569;SDS011;36525;49.398;7.614;2023-04-07T11:21:16;7.53;;;3.60;;
50569;SDS011;36525;49.398;7.614;2023-04-07T11:23:45;9.82;;;3.78;;
50569;SDS011;36525;49.398;7.614;2023-04-07T11:26:13;6.95;;;3.42;;
50569;SDS011;36525;49.398;7.614;2023-04-07T11:28:48;7.55;;;3.10;;
50569;SDS011;36525;49.398;7.614;2023-04-07T11:31:24;6.25;;;3.03;;
50569;SDS011;36525;49.398;7.614;2023-04-07T11:33:55;6.68;;;3.08;;
50569;SDS011;36525;49.398;7.614;2023-04-07T11:39:16;6.63;;;2.92;;
50569;SDS011;36525;49.398;7.614;2023-04-07T11:41:46;5.57;;;3.15;;
50569;SDS011;36525;49.398;7.614;2023-04-07T11:44:15;6.18;;;3.10;;
50569;SDS011;36525;49.398;7.614;2023-04-07T11:46:55;7.38;;;3.63;;
50569;SDS011;36525;49.398;7.614;2023-04-07T11:49:27;8.32;;;2.97;;
50569;SDS011;36525;49.398;7.614;2023-04-07T11:54:43;6.82;;;3.38;;
50569;SDS011;36525;49.398;7.614;2023-04-07T11:57:24;8.02;;;3.92;;
50569;SDS011;36525;49.398;7.614;2023-04-07T12:02:38;7.03;;;3.38;;
50569;SDS011;36525;49.398;7.614;2023-04-07T12:05:06;7.50;;;3.83;;
50569;SDS011;36525;49.398;7.614;2023-04-07T12:07:36;11.55;;;6.32;;
50569;SDS011;36525;49.398;7.614;2023-04-07T12:10:17;6.03;;;3.75;;
50569;SDS011;36525;49.398;7.614;2023-04-07T12:12:50;5.15;;;3.38;;
50569;SDS011;36525;49.398;7.614;2023-04-07T12:15:18;3.30;;;2.53;;
50569;SDS011;36525;49.398;7.614;2023-04-07T12:17:46;5.10;;;2.90;;
50569;SDS011;36525;49.398;7.614;2023-04-07T12:20:14;4.57;;;2.00;;
50569;SDS011;36525;49.398;7.614;2023-04-07T12:22:41;3.60;;;1.80;;
50569;SDS011;36525;49.398;7.614;2023-04-07T12:25:08;2.88;;;1.63;;
50569;SDS011;36525;49.398;7.614;2023-04-07T12:27:36;3.78;;;1.88;;
50569;SDS011;36525;49.398;7.614;2023-04-07T12:30:09;3.47;;;2.00;;
50569;SDS011;36525;49.398;7.614;2023-04-07T12:32:38;3.17;;;1.70;;
50569;SDS011;36525;49.398;7.614;2023-04-07T12:35:05;4.95;;;2.42;;
50569;SDS011;36525;49.398;7.614;2023-04-07T12:37:33;3.92;;;2.70;;
50569;SDS011;36525;49.398;7.614;2023-04-07T12:40:01;6.07;;;3.22;;
50569;SDS011;36525;49.398;7.614;2023-04-07T12:42:28;4.30;;;2.75;;
50569;SDS011;36525;49.398;7.614;2023-04-07T12:44:55;5.38;;;3.13;;
50569;SDS011;36525;49.398;7.614;2023-04-07T12:47:22;4.53;;;2.78;;
50569;SDS011;36525;49.398;7.614;2023-04-07T12:49:49;5.38;;;3.22;;
50569;SDS011;36525;49.398;7.614;2023-04-07T12:52:16;4.97;;;2.80;;
50569;SDS011;36525;49.398;7.614;2023-04-07T12:54:43;6.10;;;3.60;;
50569;SDS011;36525;49.398;7.614;2023-04-07T12:57:10;5.15;;;3.15;;
50569;SDS011;36525;49.398;7.614;2023-04-07T12:59:38;5.13;;;3.03;;
50569;SDS011;36525;49.398;7.614;2023-04-07T13:02:05;5.65;;;3.08;;
50569;SDS011;36525;49.398;7.614;2023-04-07T13:04:33;5.13;;;2.55;;
50569;SDS011;36525;49.398;7.614;2023-04-07T13:07:02;3.58;;;2.50;;
50569;SDS011;36525;49.398;7.614;2023-04-07T13:09:29;3.30;;;2.17;;
50569;SDS011;36525;49.398;7.614;2023-04-07T13:11:56;3.78;;;2.38;;
50569;SDS011;36525;49.398;7.614;2023-04-07T13:14:23;4.10;;;2.25;;
50569;SDS011;36525;49.398;7.614;2023-04-07T13:16:51;4.78;;;2.88;;
50569;SDS011;36525;49.398;7.614;2023-04-07T13:19:18;2.70;;;1.52;;
50569;SDS011;36525;49.398;7.614;2023-04-07T13:21:45;3.55;;;1.30;;
50569;SDS011;36525;49.398;7.614;2023-04-07T13:24:13;1.92;;;0.90;;
50569;SDS011;36525;49.398;7.614;2023-04-07T13:26:41;0.90;;;0.40;;
50569;SDS011;36525;49.398;7.614;2023-04-07T13:29:08;0.60;;;0.40;;
50569;SDS011;36525;49.398;7.614;2023-04-07T13:31:35;0.60;;;0.40;;
50569;SDS011;36525;49.398;7.614;2023-04-07T13:34:02;0.50;;;0.40;;
50569;SDS011;36525;49.398;7.614;2023-04-07T13:36:29;1.40;;;0.50;;
50569;SDS011;36525;49.398;7.614;2023-04-07T13:38:57;1.77;;;0.50;;
50569;SDS011;36525;49.398;7.614;2023-04-07T13:41:24;0.98;;;0.40;;
50569;SDS011;36525;49.398;7.614;2023-04-07T13:43:52;1.08;;;0.60;;
50569;SDS011;36525;49.398;7.614;2023-04-07T13:46:21;1.05;;;0.50;;
50569;SDS011;36525;49.398;7.614;2023-04-07T13:48:53;2.15;;;0.40;;
50569;SDS011;36525;49.398;7.614;2023-04-07T13:51:21;0.50;;;0.40;;
50569;SDS011;36525;49.398;7.614;2023-04-07T13:53:49;0.70;;;0.45;;
50569;SDS011;36525;49.398;7.614;2023-04-07T13:56:16;1.60;;;0.50;;
50569;SDS011;36525;49.398;7.614;2023-04-07T13:58:44;1.05;;;0.50;;
50569;SDS011;36525;49.398;7.614;2023-04-07T14:01:11;0.98;;;0.68;;
50569;SDS011;36525;49.398;7.614;2023-04-07T14:03:39;1.58;;;0.70;;
50569;SDS011;36525;49.398;7.614;2023-04-07T14:06:06;0.60;;;0.43;;
50569;SDS011;36525;49.398;7.614;2023-04-07T14:08:34;1.95;;;0.70;;
50569;SDS011;36525;49.398;7.614;2023-04-07T14:11:01;0.60;;;0.50;;
50569;SDS011;36525;49.398;7.614;2023-04-07T14:13:28;0.70;;;0.55;;
50569;SDS011;36525;49.398;7.614;2023-04-07T14:15:55;1.08;;;0.60;;
50569;SDS011;36525;49.398;7.614;2023-04-07T14:18:22;1.90;;;0.70;;
50569;SDS011;36525;49.398;7.614;2023-04-07T14:20:50;2.03;;;0.75;;
50569;SDS011;36525;49.398;7.614;2023-04-07T14:23:17;1.67;;;0.70;;
50569;SDS011;36525;49.398;7.614;2023-04-07T14:26:02;2.50;;;1.10;;
50569;SDS011;36525;49.398;7.614;2023-04-07T14:28:29;3.88;;;1.80;;
50569;SDS011;36525;49.398;7.614;2023-04-07T14:30:56;3.25;;;2.05;;
50569;SDS011;36525;49.398;7.614;2023-04-07T14:33:23;5.00;;;2.20;;
50569;SDS011;36525;49.398;7.614;2023-04-07T14:35:51;2.90;;;1.73;;
50569;SDS011;36525;49.398;7.614;2023-04-07T14:38:18;4.75;;;2.17;;
50569;SDS011;36525;49.398;7.614;2023-04-07T14:40:50;4.22;;;1.92;;
50569;SDS011;36525;49.398;7.614;2023-04-07T14:43:18;3.33;;;1.92;;
50569;SDS011;36525;49.398;7.614;2023-04-07T14:45:45;3.42;;;2.17;;
50569;SDS011;36525;49.398;7.614;2023-04-07T14:48:12;3.78;;;2.35;;
50569;SDS011;36525;49.398;7.614;2023-04-07T14:50:39;2.97;;;1.90;;
50569;SDS011;36525;49.398;7.614;2023-04-07T14:53:06;3.80;;;2.10;;
50569;SDS011;36525;49.398;7.614;2023-04-07T14:55:34;3.35;;;2.00;;
50569;SDS011;36525;49.398;7.614;2023-04-07T14:58:01;4.18;;;2.20;;
50569;SDS011;36525;49.398;7.614;2023-04-07T15:00:28;4.60;;;2.20;;
50569;SDS011;36525;49.398;7.614;2023-04-07T15:02:55;5.60;;;2.50;;
50569;SDS011;36525;49.398;7.614;2023-04-07T15:05:23;4.50;;;2.60;;
50569;SDS011;36525;49.398;7.614;2023-04-07T15:07:51;4.80;;;2.30;;
50569;SDS011;36525;49.398;7.614;2023-04-07T15:10:18;4.60;;;2.53;;
50569;SDS011;36525;49.398;7.614;2023-04-07T15:12:46;5.50;;;3.05;;
50569;SDS011;36525;49.398;7.614;2023-04-07T15:15:14;3.88;;;2.50;;
50569;SDS011;36525;49.398;7.614;2023-04-07T15:17:42;4.97;;;2.53;;
50569;SDS011;36525;49.398;7.614;2023-04-07T15:20:10;5.40;;;2.97;;
50569;SDS011;36525;49.398;7.614;2023-04-07T15:22:38;4.32;;;2.83;;
50569;SDS011;36525;49.398;7.614;2023-04-07T15:25:05;4.70;;;3.00;;